Time;durP1;ratioP1;P1;durP2;ratioP2;P2;SDS_P1;SDS_P2;PMS_P1;PMS_P2;Temp;Humidity;BMP_temperature;BMP_pressure;BME280_temperature;BME280_humidity;BME280_pressure;Samples;Min_cycle;Max_cycle;Signal;HPM_P1;HPM_P2
2022/04/16 00:00:12;;;;;;;46.53;18.02;;;;;;;;;;4976080;28;20086;-70
2022/04/16 00:02:38;;;;;;;43.33;17.95;;;;;;;;;;4975093;28;20409;-70
2022/04/16 00:05:04;;;;;;;46.80;19.95;;;;;;;;;;4973365;28;20036;-70
2022/04/16 00:07:29;;;;;;;46.00;19.00;;;;;;;;;;4973574;28;20050;-70
2022/04/16 00:09:54;;;;;;;56.23;20.43;;;;;;;;;;4976954;28;20042;-70
2022/04/16 00:12:20;;;;;;;50.08;19.23;;;;;;;;;;4975775;28;20834;-70
2022/04/16 00:14:45;;;;;;;48.90;19.33;;;;;;;;;;5011226;23;20306;-70
2022/04/16 00:17:10;;;;;;;47.83;19.90;;;;;;;;;;5015386;28;20285;-70
2022/04/16 00:19:36;;;;;;;45.15;18.90;;;;;;;;;;5014966;28;20352;-70
2022/04/16 00:22:01;;;;;;;51.17;19.05;;;;;;;;;;5011592;28;20993;-70
2022/04/16 00:24:27;;;;;;;46.42;19.02;;;;;;;;;;5014338;28;20147;-70
2022/04/16 00:26:52;;;;;;;48.08;19.85;;;;;;;;;;5011479;28;20431;-71
2022/04/16 00:29:17;;;;;;;44.67;18.70;;;;;;;;;;5014010;28;20597;-71
2022/04/16 00:31:45;;;;;;;47.67;19.33;;;;;;;;;;5016342;28;20271;-70
2022/04/16 00:34:13;;;;;;;49.03;20.13;;;;;;;;;;5018190;28;20487;-70
2022/04/16 00:36:38;;;;;;;50.10;20.08;;;;;;;;;;5015386;28;20764;-70
2022/04/16 00:39:03;;;;;;;49.55;19.27;;;;;;;;;;5016523;28;20033;-70
2022/04/16 00:41:28;;;;;;;59.90;21.70;;;;;;;;;;5018938;28;20358;-70
2022/04/16 00:43:53;;;;;;;49.10;21.23;;;;;;;;;;5019750;28;20727;-70
2022/04/16 00:46:19;;;;;;;54.60;20.50;;;;;;;;;;5017928;28;20278;-70
2022/04/16 00:48:44;;;;;;;50.83;19.98;;;;;;;;;;5020236;28;20267;-70
2022/04/16 00:51:10;;;;;;;56.72;22.20;;;;;;;;;;5014556;28;20041;-70
2022/04/16 00:53:35;;;;;;;50.55;21.00;;;;;;;;;;5016642;28;20421;-70
2022/04/16 00:56:03;;;;;;;50.53;20.00;;;;;;;;;;5019226;28;20128;-70
2022/04/16 00:58:28;;;;;;;54.90;20.33;;;;;;;;;;5020985;28;20373;-70
2022/04/16 01:00:53;;;;;;;52.83;22.30;;;;;;;;;;5021606;28;20035;-70
2022/04/16 01:03:19;;;;;;;50.78;20.45;;;;;;;;;;5020465;28;20841;-71
2022/04/16 01:05:44;;;;;;;52.42;20.13;;;;;;;;;;5017813;28;20094;-71
2022/04/16 01:08:09;;;;;;;53.83;20.00;;;;;;;;;;5017053;28;20629;-70
2022/04/16 01:10:34;;;;;;;52.03;19.83;;;;;;;;;;5015607;28;20096;-70
2022/04/16 01:13:01;;;;;;;57.78;22.63;;;;;;;;;;5015074;28;20274;-70
2022/04/16 01:15:29;;;;;;;61.10;23.30;;;;;;;;;;5014962;28;20102;-71
2022/04/16 01:17:55;;;;;;;51.25;21.25;;;;;;;;;;5017540;28;20032;-70
2022/04/16 01:20:20;;;;;;;60.15;22.42;;;;;;;;;;5013316;28;20033;-70
2022/04/16 01:22:46;;;;;;;59.30;21.92;;;;;;;;;;5016014;28;20037;-71
2022/04/16 01:25:11;;;;;;;57.92;23.55;;;;;;;;;;5015260;28;20040;-71
2022/04/16 01:27:39;;;;;;;57.72;21.48;;;;;;;;;;5017470;28;20033;-70
2022/04/16 01:30:04;;;;;;;55.00;21.80;;;;;;;;;;5021232;28;20010;-70
2022/04/16 01:32:32;;;;;;;62.15;23.00;;;;;;;;;;5020345;28;20022;-71
2022/04/16 01:34:58;;;;;;;62.65;24.23;;;;;;;;;;5024420;28;20056;-70
2022/04/16 01:37:23;;;;;;;57.50;21.37;;;;;;;;;;5028662;28;20348;-70
2022/04/16 01:39:48;;;;;;;67.80;22.40;;;;;;;;;;5034063;28;20270;-70
2022/04/16 01:42:13;;;;;;;59.00;21.77;;;;;;;;;;5031723;28;20026;-70
2022/04/16 01:44:39;;;;;;;62.33;23.60;;;;;;;;;;5018482;28;20033;-69
2022/04/16 01:47:04;;;;;;;62.88;22.80;;;;;;;;;;5022367;28;20657;-70
2022/04/16 01:49:29;;;;;;;65.63;21.95;;;;;;;;;;5032550;28;20029;-70
2022/04/16 01:51:57;;;;;;;72.97;23.92;;;;;;;;;;5021953;28;20014;-70
2022/04/16 01:54:22;;;;;;;63.50;22.88;;;;;;;;;;5024302;28;20017;-70
2022/04/16 01:56:47;;;;;;;67.83;23.83;;;;;;;;;;5030123;28;20067;-70
2022/04/16 01:59:12;;;;;;;66.07;23.30;;;;;;;;;;5024842;28;20282;-70
2022/04/16 02:01:37;;;;;;;78.55;27.55;;;;;;;;;;5029535;28;20670;-70
2022/04/16 02:04:03;;;;;;;67.25;24.55;;;;;;;;;;5033354;28;20745;-70
2022/04/16 02:06:28;;;;;;;75.18;24.02;;;;;;;;;;5029408;28;20392;-70
2022/04/16 02:08:53;;;;;;;76.10;26.30;;;;;;;;;;5031337;28;20025;-70
2022/04/16 02:11:18;;;;;;;73.03;25.42;;;;;;;;;;5028020;28;20414;-71
2022/04/16 02:13:44;;;;;;;71.30;24.88;;;;;;;;;;5027262;28;20035;-70
2022/04/16 02:16:09;;;;;;;77.95;27.35;;;;;;;;;;5008904;28;20952;-70
2022/04/16 02:18:34;;;;;;;72.18;25.02;;;;;;;;;;5005155;28;20032;-71
2022/04/16 02:20:59;;;;;;;71.13;25.57;;;;;;;;;;5012448;28;20296;-70
2022/04/16 02:23:25;;;;;;;71.63;25.33;;;;;;;;;;5008915;28;20760;-70
2022/04/16 02:25:53;;;;;;;68.35;24.05;;;;;;;;;;5011089;28;20286;-70
2022/04/16 02:28:18;;;;;;;71.70;25.15;;;;;;;;;;5002055;28;20017;-70
2022/04/16 02:30:43;;;;;;;71.93;24.07;;;;;;;;;;5003691;28;20040;-70
2022/04/16 02:33:10;;;;;;;78.22;26.42;;;;;;;;;;5002045;28;20349;-70
2022/04/16 02:35:35;;;;;;;81.97;27.33;;;;;;;;;;5003690;28;20028;-70
2022/04/16 02:38:00;;;;;;;76.55;24.75;;;;;;;;;;5002935;28;20025;-70
2022/04/16 02:40:27;;;;;;;78.25;26.05;;;;;;;;;;5006423;28;20032;-70
2022/04/16 02:42:52;;;;;;;74.43;25.20;;;;;;;;;;4999999;28;20489;-70
2022/04/16 02:48:01;;;;;;;84.10;28.70;;;;;;;;;;5008087;28;20320;-71
2022/04/16 02:50:28;;;;;;;79.93;27.90;;;;;;;;;;5001609;28;20029;-70
2022/04/16 02:52:54;;;;;;;89.03;27.33;;;;;;;;;;5009557;28;21061;-70
2022/04/16 02:55:20;;;;;;;84.75;25.77;;;;;;;;;;5007883;28;20292;-70
2022/04/16 02:57:45;;;;;;;83.00;26.83;;;;;;;;;;4999373;28;20076;-70
2022/04/16 03:00:12;;;;;;;93.20;28.83;;;;;;;;;;5003777;28;20274;-70
2022/04/16 03:02:37;;;;;;;82.53;26.23;;;;;;;;;;5008469;28;20029;-70
2022/04/16 03:05:03;;;;;;;95.25;28.25;;;;;;;;;;5011922;28;20388;-70
2022/04/16 03:07:28;;;;;;;83.90;28.08;;;;;;;;;;5008377;28;20286;-70
2022/04/16 03:09:53;;;;;;;92.38;27.13;;;;;;;;;;5007091;28;20044;-70
2022/04/16 03:12:19;;;;;;;82.35;27.95;;;;;;;;;;5002998;28;20026;-70
2022/04/16 03:17:34;;;;;;;88.30;28.05;;;;;;;;;;5004783;28;20277;-70
2022/04/16 03:20:04;;;;;;;90.85;29.98;;;;;;;;;;4999628;28;20022;-70
2022/04/16 03:22:29;;;;;;;78.57;26.48;;;;;;;;;;4999195;28;20083;-70
2022/04/16 03:24:55;;;;;;;81.32;29.25;;;;;;;;;;5001456;28;20491;-70
2022/04/16 03:27:20;;;;;;;91.78;27.88;;;;;;;;;;5003292;28;20101;-70
2022/04/16 03:29:45;;;;;;;97.13;31.10;;;;;;;;;;5006722;28;20033;-70
2022/04/16 03:32:10;;;;;;;84.45;27.55;;;;;;;;;;5002855;28;20280;-70
2022/04/16 03:34:37;;;;;;;81.57;25.38;;;;;;;;;;4999816;28;20402;-70
2022/04/16 03:37:02;;;;;;;88.30;28.02;;;;;;;;;;5008240;28;20625;-70
2022/04/16 03:39:28;;;;;;;92.68;28.17;;;;;;;;;;5002871;28;20038;-71
2022/04/16 03:41:53;;;;;;;98.35;28.60;;;;;;;;;;5000630;28;20507;-70
2022/04/16 03:44:18;;;;;;;90.67;29.23;;;;;;;;;;5000417;28;20022;-71
2022/04/16 03:46:43;;;;;;;82.82;27.60;;;;;;;;;;5000368;28;20745;-70
2022/04/16 03:49:09;;;;;;;94.40;29.57;;;;;;;;;;5007298;28;20424;-70
2022/04/16 03:51:34;;;;;;;87.63;29.55;;;;;;;;;;5004516;28;20286;-70
2022/04/16 03:59:59;;;;;;;101.35;29.02;;;;;;;;;;5001336;28;20363;-70
2022/04/16 04:02:12;;;;;;;79.30;25.60;;;;;;;;;;5000862;28;20112;-71
2022/04/16 04:04:37;;;;;;;90.70;30.10;;;;;;;;;;5003799;28;20026;-70
2022/04/16 04:07:03;;;;;;;98.22;30.20;;;;;;;;;;4999861;28;20300;-70
2022/04/16 04:09:28;;;;;;;86.15;27.38;;;;;;;;;;5005373;28;20034;-70
2022/04/16 04:11:53;;;;;;;95.72;30.15;;;;;;;;;;5014636;28;20026;-70
2022/04/16 04:14:18;;;;;;;96.38;29.73;;;;;;;;;;5003956;28;20637;-70
2022/04/16 04:16:43;;;;;;;99.80;30.08;;;;;;;;;;5002746;28;20267;-70
2022/04/16 04:19:08;;;;;;;95.03;30.90;;;;;;;;;;5014060;28;20393;-70
2022/04/16 04:21:33;;;;;;;87.45;28.83;;;;;;;;;;5010589;28;20824;-70
2022/04/16 04:23:59;;;;;;;97.90;30.02;;;;;;;;;;5007106;28;20282;-70
2022/04/16 04:26:25;;;;;;;96.72;28.48;;;;;;;;;;5010284;28;20605;-70
2022/04/16 04:28:50;;;;;;;97.75;30.52;;;;;;;;;;5001576;28;20034;-70
2022/04/16 04:31:16;;;;;;;97.30;29.15;;;;;;;;;;5002212;28;20334;-70
2022/04/16 04:33:41;;;;;;;88.70;28.10;;;;;;;;;;5005051;28;20269;-70
2022/04/16 04:36:06;;;;;;;102.37;29.63;;;;;;;;;;5003738;28;20750;-70
2022/04/16 04:38:31;;;;;;;93.68;29.75;;;;;;;;;;5011861;28;20289;-70
2022/04/16 04:40:56;;;;;;;98.78;30.88;;;;;;;;;;5005902;28;20365;-70
2022/04/16 04:43:21;;;;;;;116.75;32.67;;;;;;;;;;5006837;28;20030;-70
2022/04/16 04:45:48;;;;;;;100.85;30.02;;;;;;;;;;5000167;28;20025;-69
2022/04/16 04:48:13;;;;;;;100.93;31.08;;;;;;;;;;5009513;28;20831;-69
2022/04/16 04:50:38;;;;;;;106.78;32.78;;;;;;;;;;5011583;28;20117;-69
2022/04/16 04:53:03;;;;;;;101.43;29.77;;;;;;;;;;4997560;28;20422;-70
2022/04/16 04:55:29;;;;;;;103.43;31.13;;;;;;;;;;5003775;28;20045;-70
2022/04/16 04:57:55;;;;;;;99.93;30.15;;;;;;;;;;5001748;28;20742;-70
2022/04/16 05:00:20;;;;;;;97.70;30.88;;;;;;;;;;4997941;28;20081;-70
2022/04/16 05:02:49;;;;;;;96.53;32.40;;;;;;;;;;5014579;28;20519;-70
2022/04/16 05:05:15;;;;;;;105.15;32.65;;;;;;;;;;5009528;28;20113;-70
2022/04/16 05:07:40;;;;;;;101.18;33.10;;;;;;;;;;5011888;28;20029;-69
2022/04/16 05:10:06;;;;;;;106.78;32.35;;;;;;;;;;5005640;28;20021;-70
2022/04/16 05:12:31;;;;;;;120.53;35.58;;;;;;;;;;5012576;28;20038;-70
2022/04/16 05:14:56;;;;;;;113.20;34.13;;;;;;;;;;5006997;28;20033;-70
2022/04/16 05:17:22;;;;;;;128.32;34.95;;;;;;;;;;5015005;28;20592;-70
2022/04/16 05:19:47;;;;;;;104.15;32.33;;;;;;;;;;5007724;28;20121;-69
2022/04/16 05:22:12;;;;;;;124.55;35.53;;;;;;;;;;5014985;28;20111;-69
2022/04/16 05:24:37;;;;;;;115.25;34.70;;;;;;;;;;5007260;28;20479;-70
2022/04/16 05:27:02;;;;;;;122.07;36.75;;;;;;;;;;5009598;28;20037;-69
2022/04/16 05:29:48;;;;;;;120.55;34.70;;;;;;;;;;5000486;28;20064;-69
2022/04/16 05:32:16;;;;;;;113.07;33.67;;;;;;;;;;5003788;28;20215;-70
2022/04/16 05:34:41;;;;;;;121.55;34.60;;;;;;;;;;5008087;28;20079;-69
2022/04/16 05:37:06;;;;;;;104.03;33.15;;;;;;;;;;5000831;28;20033;-70
2022/04/16 05:39:31;;;;;;;119.35;34.90;;;;;;;;;;5001864;28;20310;-70
2022/04/16 05:41:56;;;;;;;125.70;36.37;;;;;;;;;;4995943;28;20271;-70
2022/04/16 05:44:21;;;;;;;132.02;37.55;;;;;;;;;;5011378;28;20741;-70
2022/04/16 05:46:46;;;;;;;147.63;39.83;;;;;;;;;;5001806;28;20286;-70
2022/04/16 05:49:12;;;;;;;135.03;38.47;;;;;;;;;;4998923;28;20264;-70
2022/04/16 05:51:37;;;;;;;128.18;37.00;;;;;;;;;;5002209;28;20691;-70
2022/04/16 05:54:03;;;;;;;140.85;38.35;;;;;;;;;;5015184;28;20363;-70
2022/04/16 05:56:28;;;;;;;139.10;38.10;;;;;;;;;;4999965;28;20026;-70
2022/04/16 05:58:53;;;;;;;153.10;41.45;;;;;;;;;;4998212;28;20299;-70
2022/04/16 06:01:18;;;;;;;143.37;41.10;;;;;;;;;;5002447;28;20040;-69
2022/04/16 06:03:44;;;;;;;148.43;40.38;;;;;;;;;;5001048;28;20263;-70
2022/04/16 06:06:09;;;;;;;151.95;42.53;;;;;;;;;;4999658;28;20476;-70
2022/04/16 06:08:34;;;;;;;157.02;45.13;;;;;;;;;;5000225;28;20427;-70
2022/04/16 06:11:00;;;;;;;146.85;41.47;;;;;;;;;;4997534;28;20819;-70
2022/04/16 06:13:25;;;;;;;153.40;41.67;;;;;;;;;;5000880;28;20392;-70
2022/04/16 06:15:51;;;;;;;162.18;43.45;;;;;;;;;;5000283;28;20137;-71
2022/04/16 06:18:16;;;;;;;138.15;40.58;;;;;;;;;;4998113;28;20032;-71
2022/04/16 06:20:41;;;;;;;167.60;44.83;;;;;;;;;;4997889;28;21285;-70
2022/04/16 06:23:06;;;;;;;141.03;39.73;;;;;;;;;;4998808;28;20034;-70
2022/04/16 06:25:31;;;;;;;133.27;37.88;;;;;;;;;;5008443;28;20625;-70
2022/04/16 06:27:57;;;;;;;143.93;42.60;;;;;;;;;;4993881;28;20326;-70
2022/04/16 06:30:22;;;;;;;134.90;39.20;;;;;;;;;;5005417;28;20744;-70
2022/04/16 06:32:47;;;;;;;143.95;40.83;;;;;;;;;;4993487;28;20869;-70
2022/04/16 06:35:12;;;;;;;122.83;40.03;;;;;;;;;;4997922;28;20269;-69
2022/04/16 06:37:38;;;;;;;122.50;38.85;;;;;;;;;;4996671;28;20294;-70
2022/04/16 06:40:05;;;;;;;118.57;37.88;;;;;;;;;;5001067;28;20084;-70
2022/04/16 06:42:30;;;;;;;121.18;36.28;;;;;;;;;;5002706;28;20792;-70
2022/04/16 06:44:55;;;;;;;119.03;36.63;;;;;;;;;;5002817;28;20038;-71
2022/04/16 06:47:20;;;;;;;116.40;34.72;;;;;;;;;;5001829;28;20040;-70
2022/04/16 06:49:46;;;;;;;118.60;36.07;;;;;;;;;;5004418;28;20108;-68
2022/04/16 06:52:12;;;;;;;125.85;40.58;;;;;;;;;;5004028;28;20305;-70
2022/04/16 06:54:37;;;;;;;105.63;36.15;;;;;;;;;;4993420;28;20556;-70
2022/04/16 06:57:03;;;;;;;114.50;38.97;;;;;;;;;;5007981;28;20060;-69
2022/04/16 06:59:28;;;;;;;108.78;36.10;;;;;;;;;;5012237;28;20293;-69
2022/04/16 07:01:53;;;;;;;100.40;34.15;;;;;;;;;;4998593;28;20022;-70
2022/04/16 07:04:18;;;;;;;111.47;35.58;;;;;;;;;;5009260;28;20025;-70
2022/04/16 07:06:43;;;;;;;92.83;33.87;;;;;;;;;;4997364;28;20048;-70
2022/04/16 07:09:10;;;;;;;100.27;32.60;;;;;;;;;;5009069;28;20733;-69
2022/04/16 07:11:35;;;;;;;95.05;32.30;;;;;;;;;;5008084;28;20370;-70
2022/04/16 07:14:00;;;;;;;99.20;35.83;;;;;;;;;;5009756;28;20044;-69
2022/04/16 07:16:25;;;;;;;91.65;33.70;;;;;;;;;;5007035;28;20087;-71
2022/04/16 07:18:51;;;;;;;95.73;33.90;;;;;;;;;;5009047;28;20468;-71
2022/04/16 07:21:16;;;;;;;86.00;30.48;;;;;;;;;;5007972;28;20038;-70
2022/04/16 07:23:41;;;;;;;88.60;31.38;;;;;;;;;;5006193;28;20042;-69
2022/04/16 07:26:07;;;;;;;96.90;32.47;;;;;;;;;;5007004;28;20036;-71
2022/04/16 07:28:32;;;;;;;93.43;31.42;;;;;;;;;;5003521;28;20061;-70
2022/04/16 07:30:57;;;;;;;85.40;30.20;;;;;;;;;;5001491;28;20053;-70
2022/04/16 07:33:22;;;;;;;89.30;31.08;;;;;;;;;;5007178;28;20274;-70
2022/04/16 07:35:47;;;;;;;91.28;31.50;;;;;;;;;;5002278;28;20087;-70
2022/04/16 07:38:12;;;;;;;74.65;26.75;;;;;;;;;;5007737;28;20432;-70
2022/04/16 07:40:38;;;;;;;83.93;31.95;;;;;;;;;;5016353;28;20037;-70
2022/04/16 07:43:03;;;;;;;81.07;31.70;;;;;;;;;;5009913;28;20038;-70
2022/04/16 07:45:28;;;;;;;83.70;31.15;;;;;;;;;;4996252;28;20350;-69
2022/04/16 07:47:54;;;;;;;83.53;30.52;;;;;;;;;;5010010;28;20461;-69
2022/04/16 07:50:19;;;;;;;79.47;30.37;;;;;;;;;;5002811;28;20034;-70
2022/04/16 07:52:45;;;;;;;76.03;27.58;;;;;;;;;;4998903;28;20140;-71
2022/04/16 07:55:10;;;;;;;83.43;29.30;;;;;;;;;;5006347;28;20091;-70
2022/04/16 07:57:35;;;;;;;78.95;29.65;;;;;;;;;;4995902;28;20037;-70
2022/04/16 08:00:00;;;;;;;69.97;28.27;;;;;;;;;;4999462;28;20076;-70
2022/04/16 08:02:26;;;;;;;67.72;26.30;;;;;;;;;;4994046;28;20025;-70
2022/04/16 08:04:51;;;;;;;69.20;27.30;;;;;;;;;;5000077;28;20116;-71
2022/04/16 08:07:16;;;;;;;73.03;27.20;;;;;;;;;;4998601;28;20029;-71
2022/04/16 08:09:41;;;;;;;71.20;28.73;;;;;;;;;;4997420;28;20045;-71
2022/04/16 08:12:07;;;;;;;72.37;30.43;;;;;;;;;;4995482;28;20275;-71
2022/04/16 08:14:33;;;;;;;71.13;25.98;;;;;;;;;;4996543;28;20278;-70
2022/04/16 08:16:58;;;;;;;63.15;25.20;;;;;;;;;;4998637;28;20025;-71
2022/04/16 08:19:23;;;;;;;56.28;23.90;;;;;;;;;;4998218;28;20038;-71
2022/04/16 08:21:49;;;;;;;66.07;27.57;;;;;;;;;;4999714;28;20065;-70
2022/04/16 08:24:22;;;;;;;55.17;25.98;;;;;;;;;;4999531;28;21017;-70
2022/04/16 08:26:48;;;;;;;68.63;26.92;;;;;;;;;;5000114;28;20414;-71
2022/04/16 08:29:13;;;;;;;56.22;24.58;;;;;;;;;;5003765;28;20052;-70
2022/04/16 08:31:38;;;;;;;54.00;24.07;;;;;;;;;;4997400;28;20571;-71
2022/04/16 08:34:03;;;;;;;59.40;24.95;;;;;;;;;;4997011;28;20275;-73
2022/04/16 08:36:29;;;;;;;64.65;26.00;;;;;;;;;;4994354;28;20041;-73
2022/04/16 08:38:54;;;;;;;54.92;21.60;;;;;;;;;;4997668;28;20547;-73
2022/04/16 08:41:19;;;;;;;56.90;21.60;;;;;;;;;;4993612;28;20037;-73
2022/04/16 08:43:44;;;;;;;60.08;24.20;;;;;;;;;;4996264;28;20610;-72
2022/04/16 08:46:10;;;;;;;57.87;27.53;;;;;;;;;;4995952;28;20026;-72
2022/04/16 08:48:38;;;;;;;57.33;24.13;;;;;;;;;;4999167;28;20287;-73
2022/04/16 08:51:03;;;;;;;52.00;22.60;;;;;;;;;;4998862;28;20255;-76
2022/04/16 08:53:28;;;;;;;47.30;20.40;;;;;;;;;;4993800;28;20034;-74
2022/04/16 08:55:53;;;;;;;42.28;19.70;;;;;;;;;;5000858;28;20041;-73
2022/04/16 08:58:19;;;;;;;39.05;19.80;;;;;;;;;;4998228;28;20033;-73
2022/04/16 09:00:44;;;;;;;47.53;21.03;;;;;;;;;;5004363;28;20029;-74
2022/04/16 09:03:09;;;;;;;39.85;18.58;;;;;;;;;;4996041;28;20609;-74
2022/04/16 09:05:35;;;;;;;36.70;16.20;;;;;;;;;;5000814;28;20026;-73
2022/04/16 09:08:02;;;;;;;45.00;18.92;;;;;;;;;;4997444;28;20029;-73
2022/04/16 09:10:28;;;;;;;44.20;17.35;;;;;;;;;;5004873;28;20018;-74
2022/04/16 09:12:55;;;;;;;42.67;19.80;;;;;;;;;;5001851;28;20024;-75
2022/04/16 09:15:21;;;;;;;40.83;16.70;;;;;;;;;;4997713;28;20108;-73
2022/04/16 09:18:06;;;;;;;38.25;16.25;;;;;;;;;;4997594;28;20044;-74
2022/04/16 09:20:35;;;;;;;43.88;17.63;;;;;;;;;;4999495;28;20485;-76
2022/04/16 09:23:01;;;;;;;37.13;17.92;;;;;;;;;;5014065;28;20030;-71
2022/04/16 09:25:28;;;;;;;36.10;16.73;;;;;;;;;;5003576;28;20023;-74
2022/04/16 09:27:54;;;;;;;40.33;16.23;;;;;;;;;;5005438;28;20030;-74
2022/04/16 09:30:25;;;;;;;31.40;16.40;;;;;;;;;;4999451;28;20360;-72
2022/04/16 09:32:52;;;;;;;32.85;15.40;;;;;;;;;;5001286;28;20101;-74
2022/04/16 09:35:36;;;;;;;42.78;20.23;;;;;;;;;;5000850;28;20488;-72
2022/04/16 09:38:02;;;;;;;36.10;16.90;;;;;;;;;;5006129;28;20401;-74
2022/04/16 09:40:29;;;;;;;39.35;19.58;;;;;;;;;;5002051;28;20405;-72
2022/04/16 09:42:55;;;;;;;34.83;16.23;;;;;;;;;;5004064;28;20036;-75
2022/04/16 09:45:21;;;;;;;37.40;16.55;;;;;;;;;;5005365;28;20026;-73
2022/04/16 09:47:50;;;;;;;32.00;15.32;;;;;;;;;;4999362;28;20029;-75
2022/04/16 09:50:16;;;;;;;35.45;18.08;;;;;;;;;;4996213;28;20398;-74
2022/04/16 09:52:42;;;;;;;30.00;14.82;;;;;;;;;;5004910;28;20137;-72
2022/04/16 09:55:09;;;;;;;27.13;12.43;;;;;;;;;;5000901;28;20021;-76
2022/04/16 09:57:36;;;;;;;29.98;14.65;;;;;;;;;;4999103;28;20034;-72
2022/04/16 10:00:03;;;;;;;32.60;16.45;;;;;;;;;;5007133;28;20518;-73
2022/04/16 10:02:31;;;;;;;29.67;14.10;;;;;;;;;;5006961;28;20050;-74
2022/04/16 10:04:56;;;;;;;34.05;14.40;;;;;;;;;;4996995;28;20451;-72
2022/04/16 10:07:22;;;;;;;37.53;15.45;;;;;;;;;;5001657;28;20026;-75
2022/04/16 10:09:53;;;;;;;37.67;17.20;;;;;;;;;;4996193;28;20397;-74
2022/04/16 10:15:05;;;;;;;36.83;14.48;;;;;;;;;;5003216;28;20029;-75
2022/04/16 10:17:43;;;;;;;37.65;16.02;;;;;;;;;;4997727;28;20057;-72
2022/04/16 10:20:14;;;;;;;31.20;13.20;;;;;;;;;;4997722;28;20086;-75
2022/04/16 10:22:40;;;;;;;26.45;13.40;;;;;;;;;;4997401;28;20026;-72
2022/04/16 10:25:05;;;;;;;28.37;13.90;;;;;;;;;;4997627;28;20033;-72
2022/04/16 10:27:31;;;;;;;24.45;11.90;;;;;;;;;;4995216;28;20283;-72
2022/04/16 10:30:00;;;;;;;24.63;12.75;;;;;;;;;;4994260;28;20018;-73
2022/04/16 10:32:27;;;;;;;27.15;12.13;;;;;;;;;;5000093;28;20018;-73
2022/04/16 10:35:01;;;;;;;25.55;12.57;;;;;;;;;;5005030;28;20044;-73
2022/04/16 10:37:26;;;;;;;22.45;10.73;;;;;;;;;;5002299;28;20049;-73
2022/04/16 10:39:53;;;;;;;21.20;10.40;;;;;;;;;;5001572;28;20129;-73
2022/04/16 10:42:27;;;;;;;20.15;10.27;;;;;;;;;;5000959;28;20457;-70
2022/04/16 10:44:53;;;;;;;19.27;10.30;;;;;;;;;;4996290;28;20037;-68
2022/04/16 10:47:18;;;;;;;27.88;11.30;;;;;;;;;;4999090;28;20030;-70
2022/04/16 10:49:44;;;;;;;20.75;10.60;;;;;;;;;;4998817;28;20105;-71
2022/04/16 10:52:19;;;;;;;18.73;10.13;;;;;;;;;;5002316;28;20056;-70
2022/04/16 10:54:47;;;;;;;14.85;8.90;;;;;;;;;;5002073;28;20018;-70
2022/04/16 10:57:19;;;;;;;17.52;8.75;;;;;;;;;;4999713;28;20029;-71
2022/04/16 10:59:45;;;;;;;18.67;10.50;;;;;;;;;;5004475;28;20034;-70
2022/04/16 11:02:24;;;;;;;22.90;10.00;;;;;;;;;;5004821;28;20037;-70
2022/04/16 11:04:56;;;;;;;16.50;9.40;;;;;;;;;;4998216;28;20480;-75
2022/04/16 11:07:22;;;;;;;19.80;10.38;;;;;;;;;;4999927;28;20112;-72
2022/04/16 11:09:50;;;;;;;23.50;10.40;;;;;;;;;;5001875;28;20026;-70
2022/04/16 11:12:15;;;;;;;22.55;10.50;;;;;;;;;;5003061;28;20425;-73
2022/04/16 11:14:41;;;;;;;32.47;10.82;;;;;;;;;;4989438;28;20117;-73
2022/04/16 11:17:06;;;;;;;56.00;11.18;;;;;;;;;;5010529;28;20034;-72
2022/04/16 11:19:32;;;;;;;34.55;12.32;;;;;;;;;;5001326;28;20159;-72
2022/04/16 11:21:57;;;;;;;17.92;10.23;;;;;;;;;;4999697;28;20018;-76
2022/04/16 11:24:22;;;;;;;16.85;9.05;;;;;;;;;;5006929;28;20351;-76
2022/04/16 11:35:00;;;;;;;;;;;;;;;;;;5001308;28;20495;-77
2022/04/16 11:37:26;;;;;;;25.10;11.60;;;;;;;;;;5002100;28;19909;-76
2022/04/16 11:40:08;;;;;;;22.58;12.48;;;;;;;;;;5004342;28;20026;-71
2022/04/16 11:42:33;;;;;;;21.10;11.25;;;;;;;;;;5001237;28;20169;-75
2022/04/16 11:44:58;;;;;;;20.98;10.57;;;;;;;;;;4992607;28;20109;-75
2022/04/16 11:47:24;;;;;;;20.58;10.93;;;;;;;;;;5009385;28;20079;-76
2022/04/16 11:49:53;;;;;;;16.85;10.65;;;;;;;;;;5000405;28;20030;-74
2022/04/16 11:52:29;;;;;;;18.45;10.85;;;;;;;;;;4998114;28;20488;-77
2022/04/16 11:55:01;;;;;;;25.05;9.68;;;;;;;;;;4995905;28;20418;-77
2022/04/16 11:57:26;;;;;;;20.45;9.90;;;;;;;;;;4997395;28;20122;-74
2022/04/16 11:59:58;;;;;;;15.85;10.18;;;;;;;;;;4991892;28;20064;-75
2022/04/16 12:02:29;;;;;;;19.50;9.82;;;;;;;;;;5002916;28;20034;-77
2022/04/16 12:04:54;;;;;;;12.25;8.65;;;;;;;;;;4998141;28;20495;-75
2022/04/16 12:07:20;;;;;;;15.95;8.60;;;;;;;;;;4993740;28;20034;-73
2022/04/16 12:09:46;;;;;;;17.50;8.75;;;;;;;;;;4996401;28;20109;-77
2022/04/16 12:12:18;;;;;;;11.38;8.63;;;;;;;;;;4998836;28;20520;-74
2022/04/16 12:14:47;;;;;;;17.17;8.52;;;;;;;;;;5002387;28;20079;-76
2022/04/16 12:17:20;;;;;;;12.68;8.55;;;;;;;;;;5010651;28;20116;-77
2022/04/16 12:19:45;;;;;;;11.85;8.13;;;;;;;;;;5010182;28;20152;-77
2022/04/16 12:22:16;;;;;;;12.93;7.97;;;;;;;;;;5003997;28;20625;-82
2022/04/16 12:24:42;;;;;;;11.93;7.80;;;;;;;;;;5003712;28;20030;-77
2022/04/16 12:27:07;;;;;;;11.23;7.80;;;;;;;;;;5001831;28;20494;-78
2022/04/16 12:29:32;;;;;;;14.80;7.93;;;;;;;;;;5007452;28;20368;-75
2022/04/16 12:32:00;;;;;;;21.63;8.07;;;;;;;;;;5011899;28;20021;-74
2022/04/16 12:34:25;;;;;;;13.52;7.97;;;;;;;;;;5002108;28;20464;-75
2022/04/16 12:36:51;;;;;;;13.20;7.85;;;;;;;;;;5001942;28;20034;-75
2022/04/16 12:39:16;;;;;;;14.53;7.23;;;;;;;;;;5008819;28;20041;-74
2022/04/16 12:41:41;;;;;;;10.07;7.32;;;;;;;;;;5002882;28;20162;-73
2022/04/16 12:44:06;;;;;;;10.97;7.10;;;;;;;;;;5005360;28;20030;-73
2022/04/16 12:46:31;;;;;;;11.57;7.22;;;;;;;;;;5003217;28;20283;-68
2022/04/16 12:48:57;;;;;;;11.00;6.20;;;;;;;;;;5005247;28;20022;-74
2022/04/16 12:51:23;;;;;;;12.68;7.72;;;;;;;;;;5007296;28;20018;-75
2022/04/16 12:53:48;;;;;;;10.85;6.20;;;;;;;;;;5003670;28;20025;-76
2022/04/16 12:56:13;;;;;;;12.73;8.07;;;;;;;;;;5010562;28;20010;-76
2022/04/16 12:58:38;;;;;;;9.40;6.97;;;;;;;;;;5001293;28;20038;-74
2022/04/16 13:01:03;;;;;;;8.60;6.35;;;;;;;;;;5007296;28;20382;-74
2022/04/16 13:03:28;;;;;;;14.30;7.25;;;;;;;;;;5005251;28;20047;-74
2022/04/16 13:05:54;;;;;;;11.70;7.60;;;;;;;;;;5005830;28;20366;-74
2022/04/16 13:08:19;;;;;;;11.90;7.10;;;;;;;;;;5007436;28;20033;-74
2022/04/16 13:10:44;;;;;;;10.80;6.33;;;;;;;;;;5011659;28;20072;-74
2022/04/16 13:13:09;;;;;;;8.87;6.40;;;;;;;;;;5008471;28;20267;-74
2022/04/16 13:15:34;;;;;;;11.18;5.95;;;;;;;;;;5005673;28;20323;-74
2022/04/16 13:18:00;;;;;;;16.07;7.27;;;;;;;;;;5004727;28;20499;-73
2022/04/16 13:20:25;;;;;;;9.77;5.53;;;;;;;;;;5008407;28;20029;-77
2022/04/16 13:22:50;;;;;;;7.50;4.40;;;;;;;;;;5006807;28;20480;-75
2022/04/16 13:25:16;;;;;;;8.00;4.80;;;;;;;;;;5010310;28;20036;-75
2022/04/16 13:27:41;;;;;;;8.32;5.30;;;;;;;;;;5009036;28;20310;-75
2022/04/16 13:30:06;;;;;;;9.52;5.57;;;;;;;;;;5017831;28;20822;-74
2022/04/16 13:32:32;;;;;;;13.43;5.22;;;;;;;;;;5006233;28;20033;-76
2022/04/16 13:34:57;;;;;;;14.50;5.63;;;;;;;;;;5000466;28;20492;-75
2022/04/16 13:37:23;;;;;;;10.93;6.47;;;;;;;;;;5009570;28;20029;-75
2022/04/16 13:42:32;;;;;;;9.57;5.75;;;;;;;;;;5003002;28;20079;-75
2022/04/16 13:44:58;;;;;;;10.13;5.65;;;;;;;;;;5004000;28;20034;-75
2022/04/16 13:47:24;;;;;;;10.57;6.57;;;;;;;;;;5003315;28;20018;-75
2022/04/16 13:49:49;;;;;;;11.25;7.43;;;;;;;;;;5000832;28;20106;-74
2022/04/16 13:52:15;;;;;;;14.30;7.28;;;;;;;;;;5003146;28;20022;-75
2022/04/16 13:54:41;;;;;;;14.63;7.15;;;;;;;;;;5004502;28;20088;-74
2022/04/16 13:57:08;;;;;;;11.93;7.15;;;;;;;;;;5003705;28;20574;-75
2022/04/16 13:59:34;;;;;;;10.90;7.65;;;;;;;;;;5001569;28;20079;-75
2022/04/16 14:01:59;;;;;;;10.73;7.57;;;;;;;;;;5008934;28;20514;-77
2022/04/16 14:04:24;;;;;;;10.77;6.20;;;;;;;;;;5017476;28;20040;-74
2022/04/16 14:06:49;;;;;;;8.00;6.20;;;;;;;;;;5001240;28;20061;-74
2022/04/16 14:09:14;;;;;;;12.23;6.28;;;;;;;;;;4999554;28;20044;-75
2022/04/16 14:11:41;;;;;;;9.93;7.03;;;;;;;;;;5003761;28;20030;-74
2022/04/16 14:14:06;;;;;;;11.70;6.68;;;;;;;;;;4996910;28;20018;-75
2022/04/16 14:16:31;;;;;;;8.88;5.78;;;;;;;;;;5000818;28;20045;-76
2022/04/16 14:18:57;;;;;;;8.55;6.55;;;;;;;;;;5002879;28;20440;-72
2022/04/16 14:21:22;;;;;;;8.50;6.53;;;;;;;;;;5001282;28;20018;-75
2022/04/16 14:23:47;;;;;;;14.27;6.63;;;;;;;;;;5004343;28;20064;-73
2022/04/16 14:26:13;;;;;;;9.43;6.17;;;;;;;;;;5002481;28;20080;-76
2022/04/16 14:28:39;;;;;;;8.68;5.80;;;;;;;;;;5001333;28;20275;-74
2022/04/16 14:31:05;;;;;;;12.30;7.13;;;;;;;;;;5008789;28;20059;-76
2022/04/16 14:33:35;;;;;;;9.77;6.22;;;;;;;;;;5007228;28;20096;-74
2022/04/16 14:36:03;;;;;;;12.23;5.93;;;;;;;;;;5008832;28;20026;-76